Time;durP1;ratioP1;P1;durP2;ratioP2;P2;SDS_P1;SDS_P2;PMS_P1;PMS_P2;Temp;Humidity;BMP_temperature;BMP_pressure;BME280_temperature;BME280_humidity;BME280_pressure;Samples;Min_cycle;Max_cycle;Signal;HPM_P1;HPM_P2
2022/04/28 00:01:39;;;;;;;6.82;3.00;;;;;;;7.98;90.53;103000.03;5000827;28;20395;-75
2022/04/28 00:04:07;;;;;;;5.47;3.00;;;;;;;7.95;90.19;102997.25;4981747;28;20254;-75
2022/04/28 00:06:36;;;;;;;4.70;2.25;;;;;;;7.92;90.08;103002.38;5000078;28;20042;-74
2022/04/28 00:09:05;;;;;;;10.55;2.40;;;;;;;7.92;89.89;103001.44;4977851;28;20168;-76
2022/04/28 00:11:34;;;;;;;6.72;2.53;;;;;;;7.92;89.41;103001.44;4968339;28;20069;-74
2022/04/28 00:14:03;;;;;;;6.13;3.00;;;;;;;7.93;89.85;103006.78;5017102;28;20058;-75
2022/04/28 00:16:31;;;;;;;4.32;2.03;;;;;;;7.94;89.61;103010.28;4994182;28;20064;-75
2022/04/28 00:19:03;;;;;;;10.70;2.75;;;;;;;7.92;89.86;103007.63;4966558;28;20388;-74
2022/04/28 00:21:31;;;;;;;9.88;3.08;;;;;;;7.90;89.66;103008.34;4974805;28;20046;-75
2022/04/28 00:23:59;;;;;;;10.52;2.80;;;;;;;7.88;89.79;103007.38;5003380;28;20041;-75
2022/04/28 00:26:28;;;;;;;6.97;2.15;;;;;;;7.88;89.97;103010.00;4989816;28;20046;-75
2022/04/28 00:28:56;;;;;;;6.13;2.20;;;;;;;7.89;89.76;103009.19;5019012;28;20537;-75
2022/04/28 00:31:25;;;;;;;5.70;2.20;;;;;;;7.91;89.65;103013.69;4989154;28;20041;-75
2022/04/28 00:33:55;;;;;;;5.75;1.83;;;;;;;7.91;89.76;103008.44;5020812;28;20129;-75
2022/04/28 00:36:23;;;;;;;6.30;2.10;;;;;;;7.91;89.66;103003.19;4980806;28;20505;-75
2022/04/28 00:38:52;;;;;;;16.65;3.03;;;;;;;7.91;89.66;102999.66;5000696;28;20348;-75
2022/04/28 00:41:20;;;;;;;8.10;2.88;;;;;;;7.88;89.36;103000.44;4987604;28;20660;-75
2022/04/28 00:43:53;;;;;;;6.97;2.75;;;;;;;7.88;89.68;103000.44;4991704;28;20039;-75
2022/04/28 00:46:22;;;;;;;7.25;2.00;;;;;;;7.85;89.86;102996.75;4970691;28;20369;-75
2022/04/28 00:51:40;;;;;;;6.25;2.45;;;;;;;7.82;89.77;103000.09;4983389;28;20033;-75
2022/04/28 00:54:09;;;;;;;5.13;2.28;;;;;;;7.80;90.22;102997.41;5018378;28;20045;-75
2022/04/28 00:56:38;;;;;;;7.40;2.33;;;;;;;7.81;90.04;102999.22;5006785;28;20399;-75
2022/04/28 00:59:06;;;;;;;6.63;2.47;;;;;;;7.83;90.50;103011.53;4978686;28;20056;-75
2022/04/28 01:01:35;;;;;;;5.80;2.25;;;;;;;7.84;90.00;103002.81;5022127;28;20042;-75
2022/04/28 01:04:06;;;;;;;9.93;2.42;;;;;;;7.85;90.41;102997.66;5002375;28;20551;-74
2022/04/28 01:06:34;;;;;;;7.20;2.75;;;;;;;7.86;90.05;102998.53;4987705;28;20399;-74
2022/04/28 01:09:03;;;;;;;14.90;2.97;;;;;;;7.87;90.16;102987.22;4961778;28;20042;-75
2022/04/28 01:11:33;;;;;;;9.43;4.00;;;;;;;7.88;90.15;103004.75;5018185;28;20045;-75
2022/04/28 01:14:14;;;;;;;8.63;2.53;;;;;;;7.89;90.19;103002.22;4959561;28;20163;-75
2022/04/28 01:16:48;;;;;;;5.55;3.00;;;;;;;7.90;89.92;102995.22;5000533;28;20053;-74
2022/04/28 01:19:16;;;;;;;7.13;3.20;;;;;;;7.90;90.72;102992.59;4993042;28;20164;-75
2022/04/28 01:21:45;;;;;;;5.60;2.53;;;;;;;7.89;90.67;103001.31;5021409;28;20038;-75
2022/04/28 01:24:17;;;;;;;5.13;2.80;;;;;;;7.87;90.51;103006.50;4978246;28;20267;-75
2022/04/28 01:26:46;;;;;;;6.05;3.00;;;;;;;7.88;90.88;103008.31;5021111;28;20042;-75
2022/04/28 01:29:15;;;;;;;5.10;3.03;;;;;;;7.88;90.79;103010.94;4995009;28;20042;-74
2022/04/28 01:31:43;;;;;;;4.95;2.55;;;;;;;7.87;90.97;103009.13;4989601;28;20407;-74
2022/04/28 01:34:12;;;;;;;12.38;2.75;;;;;;;7.86;91.32;103009.03;5015829;28;20339;-74
2022/04/28 01:36:41;;;;;;;8.25;2.75;;;;;;;7.87;91.52;103009.13;5019659;28;20049;-74
2022/04/28 01:39:10;;;;;;;6.60;2.50;;;;;;;7.89;91.97;103011.81;4956854;28;20318;-75
2022/04/28 01:41:42;;;;;;;7.68;2.97;;;;;;;7.89;91.55;103014.44;5005271;28;20053;-75
2022/04/28 01:44:11;;;;;;;7.65;2.85;;;;;;;7.90;91.78;103016.22;5009750;28;20057;-75
2022/04/28 01:46:39;;;;;;;7.15;3.10;;;;;;;7.91;92.06;103012.78;5003049;28;20038;-75
2022/04/28 01:49:28;;;;;;;4.38;2.50;;;;;;;7.93;92.33;103024.25;4985835;28;20069;-75
2022/04/28 01:55:25;;;;;;;7.57;3.05;;;;;;;7.93;92.21;103014.66;4949546;28;20054;-74
2022/04/28 01:58:25;;;;;;;6.22;3.03;;;;;;;7.95;92.11;103013.00;4989334;28;20407;-74
2022/04/28 02:01:16;;;;;;;5.93;3.13;;;;;;;7.96;92.44;103014.81;4988371;28;20061;-75
2022/04/28 02:03:46;;;;;;;12.02;3.42;;;;;;;7.96;92.00;103012.19;4987185;28;20410;-75
2022/04/28 02:06:16;;;;;;;8.40;3.38;;;;;;;7.96;92.18;103017.44;5018304;28;20049;-75
2022/04/28 02:08:46;;;;;;;13.52;3.28;;;;;;;7.95;92.43;103015.63;5005387;28;20498;-75
2022/04/28 02:11:16;;;;;;;7.07;3.35;;;;;;;7.94;92.17;103005.03;4990142;28;20064;-75
2022/04/28 02:14:03;;;;;;;9.45;3.10;;;;;;;7.92;91.81;103002.38;4982661;28;20336;-75
2022/04/28 02:16:52;;;;;;;8.43;3.22;;;;;;;7.91;91.95;103013.69;4991962;28;20050;-74
2022/04/28 02:19:26;;;;;;;7.20;3.17;;;;;;;7.90;92.11;103004.03;5002166;28;20049;-75
2022/04/28 02:21:55;;;;;;;6.05;2.47;;;;;;;7.90;92.51;103008.34;4995740;28;20382;-75
2022/04/28 02:24:23;;;;;;;6.40;2.75;;;;;;;7.91;92.62;103004.91;4984583;28;20046;-75
2022/04/28 02:26:53;;;;;;;7.13;3.53;;;;;;;7.90;92.41;103005.72;4955293;28;20040;-75
2022/04/28 02:29:21;;;;;;;8.63;3.20;;;;;;;7.89;92.45;103002.22;4986252;28;20271;-75
2022/04/28 02:31:49;;;;;;;9.00;2.88;;;;;;;7.88;92.60;102989.94;5007942;28;20046;-74
2022/04/28 02:34:18;;;;;;;7.07;3.05;;;;;;;7.86;92.94;103003.78;5001070;28;20077;-74
2022/04/28 02:36:51;;;;;;;9.82;3.38;;;;;;;7.85;92.81;103000.28;5004448;28;20507;-74
2022/04/28 02:39:21;;;;;;;6.93;3.22;;;;;;;7.84;93.10;103000.19;4989839;28;20050;-75
2022/04/28 02:41:53;;;;;;;6.53;3.42;;;;;;;7.79;93.01;102998.25;4991105;28;20391;-75
2022/04/28 02:44:21;;;;;;;5.32;2.67;;;;;;;7.75;93.40;103009.41;4992004;28;20276;-75
2022/04/28 02:46:50;;;;;;;6.45;2.70;;;;;;;7.73;93.91;103005.81;4982569;28;20530;-74
2022/04/28 02:49:25;;;;;;;9.23;2.75;;;;;;;7.72;93.92;103001.38;5002821;28;20045;-74
2022/04/28 02:51:55;;;;;;;7.53;2.95;;;;;;;7.71;94.12;103011.81;4985024;28;20068;-75
2022/04/28 02:54:25;;;;;;;6.80;3.70;;;;;;;7.69;94.60;103009.09;5017037;28;20488;-75
2022/04/28 02:56:56;;;;;;;8.43;2.97;;;;;;;7.68;94.61;103007.31;4953619;28;20042;-75
2022/04/28 02:59:24;;;;;;;6.35;3.20;;;;;;;7.67;94.60;103005.50;4979506;28;20057;-74
2022/04/28 03:01:53;;;;;;;11.05;3.20;;;;;;;7.68;94.98;103007.31;4999923;28;20510;-75
2022/04/28 03:04:25;;;;;;;8.45;3.13;;;;;;;7.71;95.18;103011.81;4996374;28;20175;-75
2022/04/28 03:12:35;;;;;;;7.65;3.30;;;;;;;7.67;95.51;103005.50;5005392;28;20037;-75
2022/04/28 03:15:12;;;;;;;5.57;3.30;;;;;;;7.65;95.53;103001.00;4952877;28;20646;-75
2022/04/28 03:17:41;;;;;;;5.65;2.92;;;;;;;7.60;95.71;102996.44;4972209;28;20049;-75
2022/04/28 03:20:10;;;;;;;9.63;3.03;;;;;;;7.57;95.73;103000.63;4976649;28;20282;-75
2022/04/28 03:22:39;;;;;;;7.30;3.28;;;;;;;7.57;95.86;103000.63;4993898;28;20046;-75
2022/04/28 03:25:08;;;;;;;6.10;3.25;;;;;;;7.54;96.12;102998.75;4999396;28;20152;-74
2022/04/28 03:27:36;;;;;;;8.48;3.08;;;;;;;7.54;96.11;103005.72;5005798;28;20054;-74
2022/04/28 03:30:06;;;;;;;4.80;3.10;;;;;;;7.53;96.25;103010.06;4974368;28;20175;-74
2022/04/28 03:32:51;;;;;;;7.07;3.25;;;;;;;7.54;96.45;103021.44;4993798;28;20046;-75
2022/04/28 03:35:20;;;;;;;8.60;3.53;;;;;;;7.53;96.51;103012.69;4976099;28;20314;-75
2022/04/28 03:37:48;;;;;;;6.07;3.22;;;;;;;7.52;96.93;103017.84;5018945;28;20050;-75
2022/04/28 03:40:17;;;;;;;8.43;3.13;;;;;;;7.51;97.42;103016.06;5017688;28;20338;-75
2022/04/28 03:42:46;;;;;;;10.07;4.03;;;;;;;7.50;97.44;103014.25;5019706;28;20034;-74
2022/04/28 03:45:16;;;;;;;11.38;4.18;;;;;;;7.48;97.32;103016.78;4975121;28;20053;-75
2022/04/28 03:47:45;;;;;;;8.90;4.10;;;;;;;7.46;97.39;103012.31;5002987;28;20034;-75
2022/04/28 03:50:13;;;;;;;9.93;3.80;;;;;;;7.39;97.59;103011.06;4991993;28;20573;-74
2022/04/28 03:52:42;;;;;;;7.03;3.60;;;;;;;7.36;97.78;103034.56;4969272;28;20051;-75
2022/04/28 03:55:12;;;;;;;6.32;3.53;;;;;;;7.31;98.00;103020.28;4977794;28;20426;-76
2022/04/28 03:57:41;;;;;;;9.85;4.15;;;;;;;7.25;98.63;103026.13;5004964;28;20045;-74
2022/04/28 04:00:10;;;;;;;9.80;4.35;;;;;;;7.19;98.83;103025.81;4945198;28;20674;-75
2022/04/28 04:02:53;;;;;;;10.02;4.13;;;;;;;7.14;99.37;103022.94;4988923;28;20386;-75
2022/04/28 04:05:23;;;;;;;8.70;4.13;;;;;;;7.14;99.24;103022.03;4976040;28;20696;-75
2022/04/28 04:07:53;;;;;;;10.10;4.97;;;;;;;7.14;100.00;103027.28;5019230;28;20492;-75
2022/04/28 04:10:44;;;;;;;10.95;5.15;;;;;;;7.16;100.00;103030.88;4961903;28;20418;-75
2022/04/28 04:13:14;;;;;;;14.38;5.70;;;;;;;7.17;100.00;103030.06;5013017;28;20148;-75
2022/04/28 04:15:54;;;;;;;11.07;4.47;;;;;;;7.19;100.00;103026.69;4967252;28;20042;-74
2022/04/28 04:18:31;;;;;;;13.20;4.30;;;;;;;7.23;100.00;103023.41;5005009;28;20046;-75
2022/04/28 04:21:08;;;;;;;11.95;3.47;;;;;;;7.25;100.00;103026.13;4975815;28;20054;-76
2022/04/28 04:23:36;;;;;;;9.82;2.90;;;;;;;7.27;100.00;103023.59;5003025;28;20030;-75
2022/04/28 04:26:05;;;;;;;9.07;2.70;;;;;;;7.27;100.00;103029.72;4983763;28;20057;-74
2022/04/28 04:28:33;;;;;;;8.60;2.20;;;;;;;7.29;100.00;103021.94;5002798;28;20042;-74
2022/04/28 04:34:06;;;;;;;13.40;2.88;;;;;;;7.33;100.00;103023.88;4999197;28;20326;-75
2022/04/28 04:36:34;;;;;;;10.25;2.55;;;;;;;7.35;100.00;103023.16;4984084;28;20042;-74
2022/04/28 04:39:03;;;;;;;10.95;2.30;;;;;;;7.38;100.00;103025.94;4983419;28;20439;-74
2022/04/28 04:41:40;;;;;;;8.93;2.40;;;;;;;7.40;100.00;103028.63;4994526;28;20033;-74
2022/04/28 04:44:13;;;;;;;5.25;2.78;;;;;;;7.43;100.00;103018.31;5018091;28;20365;-75
2022/04/28 04:46:45;;;;;;;8.45;2.22;;;;;;;7.46;100.00;103020.19;5000527;28;20038;-75
2022/04/28 04:49:32;;;;;;;11.40;2.72;;;;;;;7.49;100.00;103018.63;5013296;28;20046;-75
2022/04/28 04:52:13;;;;;;;11.43;2.50;;;;;;;7.58;100.00;103026.03;4982823;28;20038;-75
2022/04/28 04:55:06;;;;;;;6.75;2.15;;;;;;;7.86;100.00;103030.03;4987443;28;20077;-75
2022/04/28 04:57:46;;;;;;;5.43;2.33;;;;;;;8.29;100.00;103030.38;5000792;28;20054;-75
2022/04/28 05:00:15;;;;;;;9.23;2.38;;;;;;;8.56;100.00;103038.72;5006977;28;20045;-74
2022/04/28 05:03:02;;;;;;;9.07;3.15;;;;;;;8.72;100.00;103042.94;4978727;28;20462;-76
2022/04/28 05:05:51;;;;;;;6.22;2.10;;;;;;;8.81;100.00;103046.81;4972969;28;20042;-77
2022/04/28 05:08:23;;;;;;;8.85;2.20;;;;;;;9.00;100.00;103062.59;5004925;28;20073;-75
2022/04/28 05:10:59;;;;;;;9.48;2.35;;;;;;;9.33;100.00;103052.66;4994640;28;20050;-74
2022/04/28 05:13:28;;;;;;;8.15;2.28;;;;;;;9.69;100.00;103046.28;5022272;28;20042;-73
2022/04/28 05:15:59;;;;;;;6.78;2.25;;;;;;;9.81;100.00;103051.16;5000709;28;20594;-74
2022/04/28 05:18:47;;;;;;;7.72;2.13;;;;;;;9.73;100.00;103057.03;4981750;28;20054;-74
2022/04/28 05:21:33;;;;;;;7.35;2.28;;;;;;;9.70;100.00;103059.50;5018760;28;20398;-73
2022/04/28 05:24:21;;;;;;;9.88;2.38;;;;;;;9.76;100.00;103053.59;5012918;28;20034;-74
2022/04/28 05:27:18;;;;;;;5.70;2.00;;;;;;;9.83;100.00;103063.56;4987650;28;20058;-74
2022/04/28 05:29:53;;;;;;;5.97;1.83;;;;;;;9.88;100.00;103058.47;5002664;28;20042;-74
2022/04/28 05:32:30;;;;;;;6.70;1.85;;;;;;;9.92;100.00;103068.28;5015194;28;20041;-74
2022/04/28 05:35:19;;;;;;;8.15;2.30;;;;;;;10.01;100.00;103073.06;4955882;28;20054;-74
2022/04/28 05:37:47;;;;;;;9.30;2.28;;;;;;;10.30;100.00;103072.53;5023415;28;20046;-74
2022/04/28 05:40:16;;;;;;;5.20;1.77;;;;;;;10.29;99.29;103075.06;5000093;28;20043;-74
2022/04/28 05:45:46;;;;;;;5.18;2.35;;;;;;;10.27;97.00;103080.28;5003134;28;20283;-75
2022/04/28 05:48:17;;;;;;;5.35;1.60;;;;;;;10.04;95.81;103084.63;5002809;28;20050;-75
2022/04/28 05:50:50;;;;;;;8.65;2.05;;;;;;;9.87;96.45;103090.94;4969915;28;20049;-75
2022/04/28 05:53:20;;;;;;;5.20;1.77;;;;;;;9.75;96.51;103089.56;4992056;28;20077;-75
2022/04/28 05:55:54;;;;;;;7.68;1.63;;;;;;;9.71;96.63;103095.53;4974247;28;20038;-74
2022/04/28 05:58:28;;;;;;;8.05;2.03;;;;;;;9.63;96.31;103102.19;5007645;28;20707;-75
2022/04/28 06:01:26;;;;;;;9.32;2.25;;;;;;;9.58;96.97;103101.09;4989787;28;20050;-75
2022/04/28 06:03:56;;;;;;;10.07;2.30;;;;;;;9.55;96.83;103115.03;4992859;28;20073;-75
2022/04/28 06:06:25;;;;;;;9.10;1.98;;;;;;;9.57;97.37;103107.22;4949365;28;20541;-75
2022/04/28 06:09:01;;;;;;;4.93;1.70;;;;;;;9.55;97.05;103114.13;5003391;28;20156;-76
2022/04/28 06:11:34;;;;;;;8.48;2.33;;;;;;;9.51;96.30;103118.38;4974827;28;20045;-76
2022/04/28 06:14:03;;;;;;;11.90;1.73;;;;;;;9.45;96.16;103122.44;4975308;28;20404;-76
2022/04/28 06:16:46;;;;;;;7.75;1.98;;;;;;;9.40;95.30;103116.09;4984163;28;20030;-76
2022/04/28 06:19:27;;;;;;;6.90;2.20;;;;;;;9.30;95.90;103126.22;5002052;28;20041;-75
2022/04/28 06:22:07;;;;;;;8.18;1.90;;;;;;;9.24;95.78;103128.53;4931922;28;20997;-75
2022/04/28 06:24:41;;;;;;;3.70;1.35;;;;;;;9.24;95.87;103128.53;4987962;28;20053;-76
2022/04/28 06:27:11;;;;;;;9.25;2.05;;;;;;;9.22;96.10;103132.84;4965958;28;20669;-75
2022/04/28 06:29:44;;;;;;;10.80;2.28;;;;;;;9.26;95.96;103126.91;4974193;28;20278;-76
2022/04/28 06:32:12;;;;;;;5.55;1.85;;;;;;;9.35;96.02;103129.94;4956140;28;20172;-75
2022/04/28 06:35:02;;;;;;;8.50;2.08;;;;;;;9.54;97.12;103125.50;4977618;28;20357;-75
2022/04/28 06:37:33;;;;;;;7.43;1.98;;;;;;;9.67;96.42;103130.44;4965854;28;20049;-74
2022/04/28 06:40:04;;;;;;;;;;;;;;;9.80;96.37;103134.53;4993541;28;20264;-74
2022/04/28 06:42:33;;;;;;;8.05;1.67;;;;;;;9.91;95.49;103135.00;4998900;28;20371;-74
2022/04/28 06:45:20;;;;;;;3.17;1.92;;;;;;;9.98;95.11;103128.22;5002734;28;20489;-76
2022/04/28 06:48:07;;;;;;;10.38;1.85;;;;;;;9.96;94.31;103133.44;4975786;28;20260;-74
2022/04/28 06:50:39;;;;;;;10.18;2.28;;;;;;;10.01;94.04;103124.00;5017744;28;20049;-74
2022/04/28 06:53:16;;;;;;;8.02;2.05;;;;;;;10.28;94.49;103133.88;4976363;28;20390;-74
2022/04/28 06:55:49;;;;;;;8.82;1.92;;;;;;;10.54;94.04;103141.13;5001942;28;20129;-75
2022/04/28 06:58:19;;;;;;;6.75;1.90;;;;;;;10.83;94.32;103138.75;4953425;28;20048;-75
2022/04/28 07:00:49;;;;;;;7.50;1.80;;;;;;;11.03;91.88;103133.34;5008007;28;20037;-75
2022/04/28 07:03:21;;;;;;;8.32;2.45;;;;;;;11.15;91.48;103148.72;4985618;28;20034;-75
2022/04/28 07:05:53;;;;;;;8.07;1.90;;;;;;;11.34;91.17;103137.09;4967272;28;20034;-75
2022/04/28 07:08:22;;;;;;;8.13;1.63;;;;;;;11.53;91.35;103147.53;4988768;28;20041;-75
2022/04/28 07:10:51;;;;;;;6.75;1.60;;;;;;;11.61;89.12;103146.03;4979328;28;20034;-75
2022/04/28 07:13:20;;;;;;;12.83;2.03;;;;;;;11.54;86.97;103140.47;4983710;28;20049;-75
2022/04/28 07:16:01;;;;;;;7.07;1.63;;;;;;;11.39;86.04;103156.66;5000590;28;20247;-74
2022/04/28 07:18:48;;;;;;;6.05;1.60;;;;;;;11.15;85.63;103157.53;4990420;28;20073;-74
2022/04/28 07:21:18;;;;;;;8.38;2.17;;;;;;;10.97;87.39;103156.84;4969394;28;20049;-75
2022/04/28 07:23:47;;;;;;;6.07;1.95;;;;;;;10.81;87.67;103160.63;5002684;28;20050;-75
2022/04/28 07:26:16;;;;;;;7.97;2.20;;;;;;;10.66;87.92;103164.47;4972051;28;20746;-75
2022/04/28 07:28:45;;;;;;;5.63;2.00;;;;;;;10.53;87.39;103163.06;4970740;28;20387;-75
2022/04/28 07:31:23;;;;;;;6.18;1.65;;;;;;;10.39;87.51;103168.63;5006163;28;20045;-75
2022/04/28 07:34:10;;;;;;;6.22;2.42;;;;;;;10.33;88.03;103169.25;4981616;28;20255;-80
2022/04/28 07:36:57;;;;;;;5.78;2.08;;;;;;;10.32;88.08;103178.91;5004410;28;20615;-79
2022/04/28 07:39:29;;;;;;;9.90;1.67;;;;;;;10.24;88.00;103177.63;4989099;28;20049;-80
2022/04/28 07:42:17;;;;;;;10.13;2.20;;;;;;;10.26;88.90;103190.88;4984114;28;20041;-79
2022/04/28 07:44:49;;;;;;;6.40;1.95;;;;;;;10.27;89.15;103190.97;4975247;28;20049;-78
2022/04/28 07:47:17;;;;;;;7.32;2.08;;;;;;;10.34;89.65;103190.41;4987546;28;20042;-79
2022/04/28 07:50:10;;;;;;;7.90;2.70;;;;;;;10.32;89.77;103191.16;4965556;28;20454;-79
2022/04/28 07:52:40;;;;;;;13.10;2.65;;;;;;;10.27;90.05;103187.44;5004151;28;20498;-80
2022/04/28 07:55:11;;;;;;;9.15;2.17;;;;;;;10.32;90.12;103191.16;4988594;28;20034;-76
2022/04/28 07:57:41;;;;;;;11.23;2.75;;;;;;;10.35;90.18;103196.59;4990729;28;20487;-76
2022/04/28 08:00:16;;;;;;;9.25;2.40;;;;;;;10.40;90.57;103191.53;4987603;28;20355;-77
2022/04/28 08:02:50;;;;;;;11.23;2.55;;;;;;;10.48;90.65;103208.53;5006877;28;20513;-76
2022/04/28 08:05:25;;;;;;;9.40;2.83;;;;;;;10.51;90.19;103213.94;4990865;28;20069;-76
2022/04/28 08:07:54;;;;;;;11.13;2.77;;;;;;;10.42;89.64;103201.28;5000281;28;20530;-77
2022/04/28 08:10:23;;;;;;;13.32;2.45;;;;;;;10.36;89.87;103208.94;4976839;28;20054;-77
2022/04/28 08:12:51;;;;;;;10.30;3.38;;;;;;;10.35;89.78;103209.75;4966295;28;20041;-76
2022/04/28 08:15:49;;;;;;;8.13;2.67;;;;;;;10.23;89.57;103217.13;4982881;28;20495;-77
2022/04/28 08:18:18;;;;;;;10.90;2.83;;;;;;;10.21;89.41;103214.44;4957960;28;20372;-76
2022/04/28 08:20:48;;;;;;;11.33;3.03;;;;;;;10.19;89.05;103215.16;4990527;28;20068;-76
2022/04/28 08:23:19;;;;;;;;;;;;;;;10.15;89.05;103209.78;4989688;28;20289;-75
2022/04/28 08:25:47;;;;;;;15.02;3.08;;;;;;;10.21;90.22;103209.16;4972492;28;19921;-76
2022/04/28 08:28:16;;;;;;;11.88;2.70;;;;;;;10.28;90.73;103213.84;4958176;28;21320;-76
2022/04/28 08:30:44;;;;;;;7.60;2.97;;;;;;;10.32;90.58;103218.44;4986703;28;20059;-76
2022/04/28 08:33:14;;;;;;;10.80;2.57;;;;;;;10.32;90.29;103220.16;4983749;28;20053;-75
2022/04/28 08:35:43;;;;;;;7.68;3.10;;;;;;;10.35;90.32;103222.94;4992859;28;20049;-75
2022/04/28 08:38:11;;;;;;;8.57;2.25;;;;;;;10.44;90.41;103222.44;4995464;28;20052;-75
2022/04/28 08:40:45;;;;;;;13.48;2.15;;;;;;;10.59;90.30;103220.44;4966813;28;20042;-77
2022/04/28 08:43:23;;;;;;;13.07;2.65;;;;;;;10.62;89.32;103217.00;5007330;28;20051;-75
2022/04/28 08:48:55;;;;;;;11.85;3.05;;;;;;;10.55;89.80;103226.41;4990381;28;20039;-76
2022/04/28 08:51:28;;;;;;;11.45;2.20;;;;;;;10.55;89.97;103236.97;5008200;28;20049;-76
2022/04/28 08:54:02;;;;;;;9.02;2.33;;;;;;;10.50;90.16;103236.75;4988773;28;21203;-76
2022/04/28 08:56:32;;;;;;;12.53;2.83;;;;;;;10.54;90.52;103245.69;5009158;28;20049;-75
2022/04/28 08:59:05;;;;;;;13.82;3.13;;;;;;;10.53;89.75;103236.88;4976560;28;20290;-76
2022/04/28 09:01:36;;;;;;;7.10;2.22;;;;;;;10.55;89.22;103242.22;5015722;28;20045;-77
2022/04/28 09:04:33;;;;;;;12.02;2.25;;;;;;;10.59;89.14;103230.97;5002635;28;20061;-76
2022/04/28 09:07:40;;;;;;;9.93;2.47;;;;;;;10.64;88.47;103239.97;4951718;28;20077;-75
2022/04/28 09:10:32;;;;;;;10.68;2.70;;;;;;;10.73;88.33;103242.06;4999376;28;20043;-76
2022/04/28 09:16:25;;;;;;;11.02;2.35;;;;;;;10.68;88.25;103248.88;4957494;28;20042;-76
2022/04/28 09:18:55;;;;;;;12.05;2.38;;;;;;;10.57;87.91;103247.53;5009202;28;20282;-76
2022/04/28 09:21:24;;;;;;;8.35;2.28;;;;;;;10.53;87.83;103244.81;4967808;28;20034;-76
2022/04/28 09:23:54;;;;;;;13.82;2.47;;;;;;;10.50;88.04;103246.41;4974962;28;20038;-76
2022/04/28 09:26:27;;;;;;;10.20;2.35;;;;;;;10.52;88.65;103248.25;5004688;28;20122;-75
2022/04/28 09:29:06;;;;;;;;;;;;;;;10.50;88.77;103241.13;4993896;28;20077;-75
2022/04/28 09:31:38;;;;;;;16.00;2.40;;;;;;;10.57;88.88;103248.47;4965269;28;20375;-75
2022/04/28 09:34:53;;;;;;;9.07;2.42;;;;;;;10.72;89.25;103238.56;4986735;28;20523;-75
2022/04/28 09:37:42;;;;;;;10.18;2.80;;;;;;;10.75;89.22;103245.66;4975848;28;20041;-75
2022/04/28 09:43:02;;;;;;;10.15;2.55;;;;;;;10.73;89.25;103242.97;5001065;28;20034;-76
2022/04/28 09:45:39;;;;;;;7.18;2.17;;;;;;;10.75;88.59;103250.94;5002408;28;20042;-75
2022/04/28 09:48:09;;;;;;;;;;;;;;;10.75;87.55;103250.94;4981158;28;20065;-75
2022/04/28 09:51:10;;;;;;;11.82;1.95;;;;;;;10.75;87.98;103253.59;5005944;28;19929;-74
2022/04/28 09:54:10;;;;;;;7.13;2.47;;;;;;;10.80;88.32;103253.78;4981771;28;20583;-76
2022/04/28 09:56:53;;;;;;;7.32;2.50;;;;;;;10.79;88.23;103252.88;4970240;28;20049;-75
2022/04/28 09:59:23;;;;;;;10.18;2.42;;;;;;;10.88;89.35;103255.00;4977359;28;20042;-76
2022/04/28 10:01:53;;;;;;;14.98;2.60;;;;;;;10.97;88.96;103258.00;4971788;28;20271;-75
2022/04/28 10:04:22;;;;;;;10.27;2.45;;;;;;;10.98;89.05;103254.50;4982109;28;20077;-76
2022/04/28 10:07:13;;;;;;;9.93;2.35;;;;;;;10.99;88.54;103258.97;4960180;28;20046;-75
2022/04/28 10:09:50;;;;;;;6.32;2.10;;;;;;;11.04;88.21;103259.13;4982996;28;20057;-74
2022/04/28 10:12:21;;;;;;;7.97;2.40;;;;;;;11.09;88.01;103260.22;5002305;28;20736;-75
2022/04/28 10:15:11;;;;;;;12.05;2.40;;;;;;;11.08;86.95;103253.16;5005405;28;20396;-75
2022/04/28 10:17:48;;;;;;;4.97;1.67;;;;;;;11.07;86.18;103248.72;4970881;28;20054;-77
2022/04/28 10:20:38;;;;;;;12.35;2.65;;;;;;;11.08;85.86;103255.81;4990298;28;20042;-75
2022/04/28 10:32:23;;;;;;;7.03;1.70;;;;;;;11.67;84.35;103259.81;5012281;28;20419;-76
2022/04/28 10:34:58;;;;;;;6.00;2.15;;;;;;;11.55;83.42;103264.66;4977736;28;20042;-76
2022/04/28 10:37:41;;;;;;;11.20;3.33;;;;;;;11.69;84.73;103263.41;4987397;28;20046;-76
2022/04/28 10:40:16;;;;;;;11.25;2.13;;;;;;;11.94;84.29;103274.91;5003501;28;20058;-77
2022/04/28 10:42:45;;;;;;;10.95;2.00;;;;;;;12.06;84.05;103264.78;4981975;28;20052;-76
2022/04/28 10:45:20;;;;;;;7.47;2.20;;;;;;;12.21;83.13;103267.09;4993159;28;20038;-76
2022/04/28 10:48:28;;;;;;;14.40;3.25;;;;;;;12.28;80.57;103262.91;5002911;28;20450;-77
2022/04/28 10:51:20;;;;;;;7.05;1.70;;;;;;;12.42;81.54;103256.34;4981460;28;20041;-78
2022/04/28 10:53:58;;;;;;;6.03;1.95;;;;;;;12.61;81.38;103260.50;4980742;28;20153;-77
2022/04/28 10:56:50;;;;;;;7.72;2.17;;;;;;;12.64;80.77;103260.59;4997470;28;20046;-77
2022/04/28 10:59:25;;;;;;;8.45;1.80;;;;;;;12.55;79.35;103275.25;4997801;28;20073;-76
2022/04/28 11:02:18;;;;;;;6.78;1.95;;;;;;;12.42;77.73;103268.66;4984166;28;20867;-75
2022/04/28 11:05:00;;;;;;;6.40;1.88;;;;;;;12.46;79.61;103268.81;4961129;28;20054;-75
2022/04/28 11:07:31;;;;;;;9.32;2.20;;;;;;;12.63;80.04;103273.78;4975210;28;20033;-76
2022/04/28 11:10:00;;;;;;;;;;;;;;;12.60;76.27;103271.03;5001398;28;20581;-76
2022/04/28 11:12:38;;;;;;;8.82;2.25;;;;;;;12.58;79.79;103270.97;4994766;28;19922;-75
2022/04/28 11:15:13;;;;;;;7.55;2.38;;;;;;;12.56;79.18;103271.78;4986777;28;20267;-76
2022/04/28 11:17:44;;;;;;;8.05;1.92;;;;;;;12.57;79.12;103278.84;4994595;28;20053;-76
2022/04/28 11:20:21;;;;;;;9.85;3.05;;;;;;;12.45;78.32;103282.00;4987147;28;20511;-76
2022/04/28 11:22:56;;;;;;;5.75;1.67;;;;;;;12.51;78.10;103281.28;4936845;28;20042;-76
2022/04/28 11:25:26;;;;;;;8.68;1.90;;;;;;;12.64;78.85;103279.09;4999280;28;20410;-76
2022/04/28 11:27:56;;;;;;;7.90;1.88;;;;;;;12.74;78.29;103272.41;4991209;28;20693;-76
2022/04/28 11:30:26;;;;;;;10.30;2.33;;;;;;;12.57;77.93;103284.13;5016393;28;20060;-75
2022/04/28 11:32:57;;;;;;;8.38;2.15;;;;;;;12.57;78.72;103286.78;4980485;28;20050;-75
2022/04/28 11:35:31;;;;;;;8.88;2.10;;;;;;;12.70;79.33;103289.00;4983765;28;20057;-75
2022/04/28 11:38:00;;;;;;;5.43;2.38;;;;;;;12.69;77.99;103287.22;4967633;28;20052;-74
2022/04/28 11:40:33;;;;;;;6.80;2.28;;;;;;;12.58;78.05;103293.88;4988197;28;20247;-74
2022/04/28 11:43:05;;;;;;;15.15;2.42;;;;;;;12.54;78.17;103284.06;5005878;28;20053;-73
2022/04/28 11:45:36;;;;;;;8.20;1.98;;;;;;;12.66;77.60;103292.41;4992615;28;20054;-75
2022/04/28 11:48:05;;;;;;;10.70;1.95;;;;;;;12.77;77.01;103287.47;5007118;28;20054;-75
2022/04/28 11:50:34;;;;;;;11.23;2.13;;;;;;;13.06;77.34;103277.81;5001762;28;20414;-76
2022/04/28 11:53:09;;;;;;;8.80;2.53;;;;;;;13.22;75.49;103280.09;4981934;28;20046;-74
2022/04/28 11:55:40;;;;;;;7.20;1.60;;;;;;;13.19;75.85;103281.75;5003565;28;20286;-75
2022/04/28 11:58:13;;;;;;;5.45;1.77;;;;;;;13.25;76.18;103288.16;5005110;28;20534;-77
2022/04/28 12:00:46;;;;;;;8.18;1.88;;;;;;;13.26;75.16;103278.44;5026158;28;20046;-75
2022/04/28 12:03:24;;;;;;;;;;;;;;;13.19;72.27;103277.34;4986302;28;20407;-75
2022/04/28 12:05:55;;;;;;;10.50;2.30;;;;;;;13.11;74.66;103284.16;5003914;28;20035;-75
2022/04/28 12:08:24;;;;;;;11.80;1.75;;;;;;;13.01;73.88;103288.25;4981114;28;20057;-75
2022/04/28 12:19:22;;;;;;;7.32;1.52;;;;;;;13.44;73.71;103267.56;4994526;28;20045;-75
2022/04/28 12:21:50;;;;;;;8.13;1.67;;;;;;;13.30;72.84;103274.16;5008325;28;20050;-75
2022/04/28 12:24:30;;;;;;;7.68;1.60;;;;;;;13.17;72.46;103271.09;4976448;28;20042;-75
2022/04/28 12:27:10;;;;;;;6.30;1.83;;;;;;;13.16;72.81;103271.97;4986664;28;20390;-75
2022/04/28 12:29:53;;;;;;;5.93;1.95;;;;;;;13.17;73.46;103271.09;5005985;28;20156;-75
2022/04/28 12:32:22;;;;;;;10.10;1.73;;;;;;;13.27;73.68;103273.19;4990214;28;20030;-76
2022/04/28 12:35:04;;;;;;;9.13;1.60;;;;;;;13.17;73.22;103265.81;5017357;28;20042;-74
2022/04/28 12:37:40;;;;;;;12.25;2.13;;;;;;;12.91;73.48;103266.75;5001738;28;20168;-75
2022/04/28 12:40:18;;;;;;;5.40;1.80;;;;;;;12.75;73.80;103270.66;4984724;28;20521;-75
2022/04/28 12:42:49;;;;;;;7.45;1.70;;;;;;;12.80;74.93;103275.25;4990138;28;20042;-75
2022/04/28 12:45:50;;;;;;;5.50;1.60;;;;;;;12.90;73.33;103263.19;5018108;28;20070;-74